Data for 08/03/2013

Time Sea-Level Adjusted Pressure Absolute Pressure Temperature Relative Humidity Dew Point   
(mb) (inHg) (mb) (inHg) (C) (F) (%) (C) (F)
00:05 1021 30.15 851 25.13 15.4 59.7 77 11.5 52.6
00:10 1022 30.18 851 25.13 15.3 59.5 78 11.5 52.6
00:15 1022 30.18 851 25.13 15.2 59.4 78 11.4 52.5
00:20 1022 30.18 851 25.13 15.1 59.3 78 11.3 52.4
00:25 1022 30.18 851 25.13 15.1 59.2 78 11.3 52.3
00:30 1022 30.18 851 25.13 15.1 59.1 78 11.2 52.2
00:35 1022 30.18 851 25.13 15.1 59.1 78 11.3 52.3
00:40 1022 30.18 851 25.13 15.1 59.1 78 11.2 52.2
00:45 1022 30.18 851 25.13 15 59.1 78 11.3 52.3
00:50 1022 30.18 851 25.13 15 58.9 78 11.2 52.1
00:55 1022 30.18 851 25.13 15 59 78 11.2 52.1
01:00 1022 30.18 851 25.13 15.1 59.1 77 11.2 52.1
01:05 1022 30.18 851 25.13 15.1 59.2 77 11.2 52.1
01:10 1022 30.18 851 25.13 15.1 59.3 77 11.2 52.1
01:15 1022 30.18 851 25.13 15.1 59.3 77 11.2 52.2
01:20 1022 30.18 851 25.13 15.1 59.2 77 11.2 52.2
01:25 1022 30.18 851 25.13 15.1 59.2 77 11.2 52.2
01:30 1022 30.18 851 25.13 15.1 59.2 77 11.2 52.2
01:35 1022 30.18 851 25.13 15.1 59.1 78 11.2 52.2
01:40 1022 30.18 851 25.13 15 59.1 78 11.2 52.2
01:45 1022 30.18 851 25.13 15 59 78 11.2 52.1
01:50 1022 30.18 851 25.13 15 59 77 11.1 52
01:55 1022 30.18 851 25.13 15 58.9 77 11.1 51.9
02:00 1021 30.15 851 25.13 14.9 58.8 78 11.2 52.1
02:05 1022 30.18 851 25.13 14.8 58.6 78 11.1 52
02:10 1022 30.18 851 25.13 14.8 58.6 78 11 51.9
02:15 1022 30.18 851 25.13 14.7 58.5 79 11.1 51.9
02:20 1022 30.18 851 25.13 14.6 58.3 79 11.1 51.9
02:25 1022 30.18 851 25.13 14.6 58.2 79 11 51.9
02:30 1022 30.18 851 25.13 14.5 58.1 79 11 51.9
02:35 1022 30.18 851 25.13 14.5 58 80 11 51.8
02:40 1022 30.18 851 25.13 14.4 57.9 80 11 51.8
02:45 1021 30.15 851 25.13 14.3 57.8 80 11 51.8
02:50 1021 30.15 851 25.13 14.3 57.8 80 11 51.7
02:55 1021 30.15 851 25.13 14.3 57.8 80 10.9 51.7
03:00 1021 30.15 851 25.13 14.3 57.7 80 10.9 51.6
03:05 1021 30.15 851 25.13 14.3 57.8 80 10.9 51.7
03:10 1021 30.15 851 25.13 14.3 57.8 80 10.9 51.6
03:15 1022 30.18 851 25.13 14.4 57.9 79 10.9 51.6
03:20 1022 30.18 851 25.13 14.5 58.1 79 10.9 51.6
03:25 1022 30.18 851 25.13 14.6 58.2 79 10.9 51.7
03:30 1022 30.18 851 25.13 14.5 58.1 79 10.9 51.6
03:35 1022 30.18 851 25.13 14.5 58.1 79 10.9 51.6
03:40 1022 30.18 851 25.13 14.5 58.1 79 10.8 51.5
03:45 1022 30.18 851 25.13 14.5 58.1 79 10.9 51.5
03:50 1022 30.18 851 25.13 14.6 58.2 78 10.8 51.5
03:55 1022 30.18 851 25.13 14.5 58.2 78 10.8 51.4
04:00 1022 30.18 851 25.13 14.5 58.1 78 10.8 51.4
04:05 1022 30.18 851 25.13 14.4 57.9 79 10.8 51.4
04:10 1022 30.18 851 25.13 14.3 57.8 79 10.7 51.3
04:15 1022 30.18 851 25.13 14.3 57.7 79 10.6 51.1
04:20 1022 30.18 851 25.13 14.2 57.5 79 10.7 51.2
04:25 1022 30.18 851 25.13 13.9 57 81 10.6 51.2
04:30 1022 30.18 851 25.13 13.6 56.5 79 10.1 50.1
04:35 1022 30.18 851 25.13 13.6 56.4 78 9.8 49.7
04:40 1022 30.18 851 25.13 13.5 56.3 78 9.7 49.5
04:45 1022 30.18 851 25.13 13.5 56.3 79 10 50
04:50 1022 30.18 851 25.13 13.4 56.1 80 10.1 50.2
04:55 1022 30.18 851 25.13 13.4 56.1 80 10 50.1
05:00 1022 30.18 851 25.13 13.9 56.9 77 10 50
05:05 1022 30.18 851 25.13 14.1 57.4 77 10.1 50.2
05:10 1022 30.18 851 25.13 14.3 57.8 76 10.2 50.4
05:15 1022 30.18 851 25.13 14.5 58 75 10.2 50.4
05:20 1022 30.18 851 25.13 14.6 58.2 76 10.4 50.7
05:25 1022 30.18 851 25.13 14.5 58.1 76 10.3 50.6
05:30 1022 30.18 851 25.13 14.6 58.2 75 10.3 50.6
05:35 1022 30.18 851 25.13 14.6 58.2 75 10.3 50.5
05:40 1022 30.18 851 25.13 14.6 58.2 76 10.4 50.6
05:45 1022 30.18 851 25.13 14.6 58.2 75 10.3 50.5
05:50 1022 30.18 851 25.13 14.6 58.2 76 10.3 50.6
05:55 1022 30.18 851 25.13 14.5 58.2 76 10.4 50.7
06:00 1022 30.18 851 25.13 14.5 58.1 76 10.3 50.6
06:05 1022 30.18 851 25.13 14.5 58 76 10.3 50.5
06:10 1022 30.18 851 25.13 14.5 58.1 75 10.2 50.3
06:15 1022 30.18 851 25.13 14.5 58.1 75 10.3 50.5
06:20 1022 30.18 851 25.13 14.5 58.1 76 10.3 50.6
06:25 1022 30.18 851 25.13 14.4 58 75 10 50
06:30 1022 30.18 851 25.13 14.5 58.1 75 10.1 50.2
06:35 1022 30.18 851 25.13 14.5 58 75 10 50
06:40 1022 30.18 851 25.13 14.7 58.5 73 10.1 50.1
06:45 1022 30.18 851 25.13 15.1 59.1 72 10.1 50.2
06:50 1022 30.18 851 25.13 15.4 59.7 71 10.3 50.5
06:55 1022 30.18 851 25.13 15.5 60 70 10.2 50.3
07:00 1022 30.18 851 25.13 15.6 60.1 70 10.3 50.5
07:05 1022 30.18 851 25.13 15.8 60.4 69 10.1 50.3
07:10 1022 30.18 852 25.16 16.2 61.1 67 10 50.1
07:15 1022 30.18 852 25.16 16.4 61.5 63 9.5 49.1
07:20 1022 30.18 852 25.16 15 59 67 8.9 48.1
07:25 1022 30.18 852 25.16 13.9 57 68 8.2 46.7
07:30 1022 30.18 852 25.16 13.8 56.9 69 8.3 46.9
07:35 1022 30.18 852 25.16 13.7 56.7 68 7.9 46.2
07:40 1022 30.18 852 25.16 14 57.3 67 8.1 46.6
07:45 1023 30.21 852 25.16 13.9 57 68 8.1 46.6
07:50 1022 30.18 852 25.16 14 57.2 66 7.9 46.1
07:55 1023 30.21 852 25.16 14.9 58.8 65 8.4 47.1
08:00 1023 30.21 852 25.16 15.7 60.2 61 8.2 46.7
08:05 1023 30.21 852 25.16 15.9 60.6 60 8.3 46.9
08:10 1023 30.21 852 25.16 16.1 60.9 60 8.3 46.9
08:15 1023 30.21 852 25.16 16.5 61.7 58 8.4 47.1
08:20 1023 30.21 852 25.16 16.7 62 58 8.4 47.2
08:25 1023 30.21 852 25.16 16.8 62.2 58 8.5 47.2
08:30 1023 30.21 852 25.16 17.2 63 56 8.5 47.3
08:35 1023 30.21 852 25.16 17.5 63.4 56 8.7 47.7
08:40 1023 30.21 852 25.16 17.4 63.4 59 9.5 49.1
08:45 1023 30.21 852 25.16 16.9 62.3 59 9 48.1
08:50 1023 30.21 852 25.16 16.7 62.1 57 8.3 47
08:55 1022 30.18 852 25.16 17 62.6 58 8.8 47.8
09:00 1022 30.18 852 25.16 16.7 62 59 8.6 47.5
09:05 1022 30.18 852 25.16 17.6 63.7 56 8.8 47.9
09:10 1022 30.18 852 25.16 18.2 64.8 52 8.4 47.2
09:15 1022 30.18 852 25.16 18.8 65.8 53 9.3 48.7
09:20 1022 30.18 852 25.16 18.7 65.6 53 9 48.2
09:25 1022 30.18 852 25.16 18.4 65 54 9.1 48.4
09:30 1022 30.18 852 25.16 18.4 65.2 54 9.2 48.5
09:35 1022 30.18 851 25.13 19.1 66.4 51 8.8 47.9
09:40 1022 30.18 851 25.13 19.7 67.5 50 9.3 48.7
09:45 1022 30.18 851 25.13 19.7 67.4 49 8.9 48
09:50 1022 30.18 851 25.13 19.9 67.8 50 9.2 48.6
09:55 1022 30.18 851 25.13 20 67.9 47 8.3 47
10:00 1022 30.18 851 25.13 20.6 69 46 8.7 47.7
10:05 1022 30.18 851 25.13 21 69.9 46 9.1 48.4
10:10 1022 30.18 851 25.13 20.2 68.3 49 9.4 49
10:15 1022 30.18 851 25.13 20.4 68.8 47 8.9 48
10:20 1022 30.18 851 25.13 19.6 67.3 50 9.1 48.4
10:25 1022 30.18 851 25.13 19.4 66.8 49 8.4 47.2
10:30 1022 30.18 851 25.13 20.3 68.5 48 9.2 48.5
10:35 1022 30.18 851 25.13 20.6 69.1 46 8.7 47.6
10:40 1022 30.18 851 25.13 20.7 69.2 44 8 46.4
10:45 1022 30.18 851 25.13 21.5 70.7 43 8.6 47.5
10:50 1022 30.18 851 25.13 22.1 71.7 41 8.5 47.4
10:55 1022 30.18 851 25.13 22.4 72.4 42 9 48.2
11:00 1022 30.18 851 25.13 22.2 71.9 42 9 48.1
11:05 1022 30.18 851 25.13 21.3 70.3 43 8.3 46.9
11:10 1022 30.18 851 25.13 22.5 72.6 39 8.1 46.6
11:15 1022 30.18 851 25.13 23 73.4 40 9 48.1
11:20 1021 30.15 851 25.13 22.9 73.2 40 8.7 47.7
11:25 1021 30.15 851 25.13 22.5 72.5 38 7.7 45.9
11:30 1021 30.15 850 25.1 23.2 73.7 41 9.3 48.7
11:35 1021 30.15 850 25.1 22.5 72.5 40 8.3 47
11:40 1021 30.15 850 25.1 22.2 72 40 8.1 46.6
11:45 1021 30.15 850 25.1 22.4 72.3 38 7.7 45.9
11:50 1021 30.15 850 25.1 23.4 74.1 33 6.4 43.5
11:55 1021 30.15 850 25.1 24.1 75.3 34 7.4 45.4
12:00 1021 30.15 850 25.1 23.4 74.2 35 7.1 44.8
12:05 1021 30.15 850 25.1 23.1 73.7 35 7 44.7
12:10 1021 30.15 850 25.1 23.3 73.9 35 7.1 44.8
12:15 1021 30.15 850 25.1 23.4 74.2 32 6.1 43
12:20 1021 30.15 850 25.1 24.1 75.4 32 6.4 43.5
12:25 1021 30.15 850 25.1 23 73.3 34 6.3 43.3
12:30 1021 30.15 850 25.1 23.7 74.7 29 5.1 41.1
12:35 1021 30.15 850 25.1 24.7 76.4 31 6.7 44
12:40 1021 30.15 850 25.1 23.7 74.6 30 5.2 41.4
12:45 1021 30.15 850 25.1 24.1 75.3 31 6 42.8
12:50 1021 30.15 850 25.1 23.7 74.6 32 6.1 43
12:55 1021 30.15 850 25.1 24 75.1 28 4.7 40.5
13:00 1021 30.15 850 25.1 24.6 76.4 29 5.8 42.5
13:05 1021 30.15 850 25.1 24.7 76.4 30 6 42.9
13:10 1021 30.15 850 25.1 24.9 76.8 29 5.7 42.3
13:15 1021 30.15 850 25.1 25.3 77.5 28 5.6 42
13:20 1021 30.15 850 25.1 24.3 75.7 29 5.4 41.7
13:25 1021 30.15 850 25.1 24.5 76 29 5.3 41.6
13:30 1021 30.15 850 25.1 24.6 76.2 28 4.9 40.9
13:35 1021 30.15 850 25.1 25.1 77.2 27 4.9 40.8
13:40 1021 30.15 850 25.1 25.5 77.9 27 5.2 41.4
13:45 1021 30.15 850 25.1 25.6 78.1 27 5.5 41.9
13:50 1021 30.15 850 25.1 25 77 26 4.7 40.4
13:55 1021 30.15 850 25.1 25.5 77.8 26 4.9 40.8
14:00 1020 30.12 850 25.1 25.9 78.7 23 3.5 38.2
14:05 1020 30.12 850 25.1 25.8 78.4 25 4.7 40.5
14:10 1020 30.12 850 25.1 25.8 78.4 23 3.6 38.5
14:15 1020 30.12 850 25.1 26 78.8 22 3.1 37.5
14:20 1020 30.12 850 25.1 25.4 77.6 24 3.7 38.7
14:25 1020 30.12 850 25.1 25.2 77.3 25 4.1 39.3
14:30 1020 30.12 850 25.1 25.7 78.2 22 2.8 37.1
14:35 1020 30.12 849 25.07 26.2 79.2 22 2.9 37.3
14:40 1020 30.12 849 25.07 26.9 80.5 22 3.5 38.2
14:45 1020 30.12 849 25.07 26.6 79.8 21 2.8 37
14:50 1020 30.12 849 25.07 26.5 79.6 21 2.7 36.8
14:55 1020 30.12 849 25.07 26.7 80.1 21 3 37.4
15:00 1020 30.12 849 25.07 26.7 80 20 2.2 36
15:05 1020 30.12 849 25.07 26.3 79.3 22 2.8 37.1
15:10 1020 30.12 849 25.07 26.3 79.3 20 2.1 35.7
15:15 1020 30.12 849 25.07 27.1 80.7 20 2.3 36.1
15:20 1020 30.12 849 25.07 26.6 79.9 21 2.7 36.9
15:25 1020 30.12 849 25.07 25.9 78.7 21 2 35.5
15:30 1020 30.12 849 25.07 25.7 78.2 21 2.2 36
15:35 1020 30.12 849 25.07 25.9 78.6 22 2.7 36.9
15:40 1020 30.12 849 25.07 25.6 78.1 21 2 35.7
15:45 1020 30.12 849 25.07 25.4 77.6 22 2.2 36
15:50 1020 30.12 849 25.07 25.3 77.5 21 1.4 34.5
15:55 1020 30.12 849 25.07 25.4 77.6 21 1.8 35.3
16:00 1020 30.12 849 25.07 25.6 78.1 19 0.8 33.5
16:05 1020 30.12 849 25.07 26.2 79.2 20 1.6 34.9
16:10 1020 30.12 849 25.07 25.2 77.4 19 0.3 32.5
16:15 1020 30.12 849 25.07 25 76.9 21 1.3 34.4
16:20 1020 30.12 849 25.07 25.3 77.5 19 0.5 32.9
16:25 1020 30.12 849 25.07 25.9 78.6 20 1.2 34.1
16:30 1020 30.12 849 25.07 25.6 78.1 19 0.7 33.2
16:35 1020 30.12 849 25.07 25.6 78 19 0.4 32.7
16:40 1020 30.12 849 25.07 25.8 78.4 19 0.6 33
16:45 1020 30.12 849 25.07 26 78.9 17 -0.4 31.4
16:50 1020 30.12 849 25.07 25.7 78.2 18 -0.1 31.9
16:55 1020 30.12 849 25.07 26 78.8 18 0.2 32.3
17:00 1020 30.12 849 25.07 26.2 79.1 18 0.5 32.9
17:05 1020 30.12 849 25.07 26.1 79 18 0.2 32.3
17:10 1020 30.12 849 25.07 26.5 79.8 18 0.8 33.5
17:15 1020 30.12 849 25.07 26.5 79.7 17 -0 32
17:20 1020 30.12 849 25.07 26.3 79.3 17 -0.2 31.6
17:25 1020 30.12 849 25.07 26.6 79.8 16 -0.6 30.8
17:30 1020 30.12 849 25.07 26.7 80 17 -0.1 31.8
17:35 1020 30.12 849 25.07 26.3 79.4 17 -0.2 31.6
17:40 1020 30.12 849 25.07 26 78.8 18 -0 31.9
17:45 1019 30.09 849 25.07 26 78.8 18 0 32
17:50 1019 30.09 849 25.07 26.1 79 19 1.1 33.9
17:55 1019 30.09 849 25.07 26 78.7 18 0.3 32.5
18:00 1019 30.09 849 25.07 25.5 77.8 19 0.2 32.3
18:05 1019 30.09 849 25.07 25.1 77.2 19 0.2 32.4
18:10 1019 30.09 849 25.07 24.9 76.8 19 -0 32
18:15 1019 30.09 849 25.07 24.8 76.6 19 -0.5 31.2
18:20 1019 30.09 849 25.07 24.7 76.5 19 0.2 32.3
18:25 1019 30.09 849 25.07 24.8 76.6 21 1 33.8
18:30 1019 30.09 849 25.07 24.8 76.6 19 0 32
18:35 1019 30.09 849 25.07 24.7 76.5 20 0.5 32.8
18:40 1019 30.09 849 25.07 24.7 76.4 21 0.9 33.6
18:45 1019 30.09 849 25.07 24.7 76.5 20 0.6 33.1
18:50 1019 30.09 849 25.07 24.6 76.4 21 0.9 33.7
18:55 1019 30.09 849 25.07 24.6 76.3 20 0.6 33.1
19:00 1019 30.09 849 25.07 24.5 76.1 20 0.1 32.2
19:05 1019 30.09 849 25.07 24.4 75.9 22 1.3 34.4
19:10 1019 30.09 849 25.07 24.4 75.9 19 -0.1 31.7
19:15 1020 30.12 849 25.07 24.4 75.9 20 0.5 32.9
19:20 1020 30.12 849 25.07 24.3 75.8 20 0.3 32.6
19:25 1020 30.12 849 25.07 24.3 75.7 21 1 33.8
19:30 1020 30.12 849 25.07 24.2 75.5 21 1 33.7
19:35 1020 30.12 849 25.07 24.1 75.4 21 0.7 33.3
19:40 1020 30.12 849 25.07 24.1 75.4 24 2.2 36
19:45 1020 30.12 849 25.07 23.4 74 31 5.3 41.5
19:50 1020 30.12 849 25.07 22.2 71.9 33 5.3 41.6
19:55 1020 30.12 849 25.07 21.9 71.3 33 4.9 40.8
20:00 1020 30.12 849 25.07 21.9 71.3 35 6 42.9
20:05 1020 30.12 849 25.07 22 71.6 36 6.5 43.7
20:10 1020 30.12 849 25.07 22 71.5 38 7.2 44.9
20:15 1020 30.12 849 25.07 21.7 71.1 41 8.2 46.8
20:20 1020 30.12 849 25.07 21.4 70.6 45 9.2 48.6
20:25 1020 30.12 849 25.07 21 69.9 49 10.2 50.3
20:30 1020 30.12 849 25.07 20.7 69.3 52 10.8 51.4
20:35 1020 30.12 849 25.07 20.4 68.7 54 11 51.8
20:40 1020 30.12 849 25.07 20.2 68.4 55 11 51.8
20:45 1020 30.12 849 25.07 20.2 68.3 56 11.1 52
20:50 1020 30.12 850 25.1 20.1 68.1 56 11.2 52.2
20:55 1020 30.12 850 25.1 19.9 67.7 58 11.4 52.5
21:00 1020 30.12 850 25.1 19.7 67.4 58 11.4 52.5
21:05 1020 30.12 850 25.1 19.6 67.2 59 11.4 52.6
21:10 1021 30.15 850 25.1 19.5 67 59 11.4 52.6
21:15 1020 30.12 850 25.1 19.5 67 59 11.5 52.6
21:20 1021 30.15 850 25.1 19.4 66.8 60 11.6 52.8
21:25 1021 30.15 850 25.1 19.2 66.5 61 11.6 52.9
21:30 1021 30.15 850 25.1 19 66.2 62 11.6 52.9
21:35 1021 30.15 850 25.1 18.9 65.9 63 11.7 53
21:40 1021 30.15 850 25.1 18.7 65.7 63 11.7 53.1
21:45 1021 30.15 850 25.1 18.6 65.4 64 11.8 53.2
21:50 1021 30.15 850 25.1 18.4 65.2 65 11.7 53.1
21:55 1021 30.15 850 25.1 18.4 65 65 11.8 53.2
22:00 1021 30.15 850 25.1 18.2 64.8 66 11.7 53.1
22:05 1021 30.15 850 25.1 18.1 64.6 66 11.8 53.2
22:10 1021 30.15 850 25.1 18 64.3 67 11.8 53.2
22:15 1021 30.15 850 25.1 17.9 64.3 67 11.7 53.1
22:20 1021 30.15 850 25.1 17.8 64.1 67 11.7 53.1
22:25 1021 30.15 850 25.1 17.7 63.8 68 11.7 53.1
22:30 1021 30.15 850 25.1 17.6 63.8 68 11.7 53.1
22:35 1021 30.15 850 25.1 17.5 63.6 68 11.7 53.1
22:40 1021 30.15 850 25.1 17.4 63.3 69 11.7 53
22:45 1021 30.15 850 25.1 17.3 63.1 69 11.6 52.9
22:50 1021 30.15 850 25.1 17.2 63 69 11.6 52.9
22:55 1021 30.15 850 25.1 17.2 62.9 69 11.5 52.7
23:00 1021 30.15 850 25.1 17.1 62.7 69 11.5 52.7
23:05 1021 30.15 850 25.1 17 62.5 70 11.5 52.6
23:10 1021 30.15 850 25.1 16.9 62.5 70 11.4 52.5
23:15 1021 30.15 850 25.1 16.8 62.3 69 11.3 52.3
23:20 1021 30.15 850 25.1 16.8 62.2 69 11.2 52.1
23:25 1021 30.15 851 25.13 16.7 62 69 11 51.7
23:30 1021 30.15 851 25.13 16.6 61.8 68 10.7 51.3
23:35 1021 30.15 851 25.13 16.5 61.7 68 10.6 51
23:40 1021 30.15 851 25.13 16.4 61.5 67 10.3 50.5
23:45 1021 30.15 851 25.13 16.3 61.4 66 10.1 50.2
23:50 1021 30.15 851 25.13 16.2 61.1 66 9.9 49.9
23:55 1021 30.15 851 25.13 16.1 61 66 9.9 49.7
24:00 1021 30.15 851 25.13 16 60.9 66 9.8 49.7